createdAt,value
2019-03-28T00:02:16.603Z,15.23
2019-03-28T00:04:47.541Z,15.77
2019-03-28T00:07:18.550Z,17.50
2019-03-28T00:09:49.522Z,15.90
2019-03-28T00:12:21.591Z,15.23
2019-03-28T00:14:53.963Z,15.57
2019-03-28T00:17:26.235Z,14.13
2019-03-28T00:19:58.453Z,14.83
2019-03-28T00:22:51.149Z,16.33
2019-03-28T00:25:22.317Z,14.73
2019-03-28T00:27:53.334Z,15.77
2019-03-28T00:30:24.375Z,14.20
2019-03-28T00:32:55.488Z,14.50
2019-03-28T00:35:26.765Z,12.83
2019-03-28T00:37:57.810Z,13.10
2019-03-28T00:40:30.271Z,14.43
2019-03-28T00:43:02.415Z,13.97
2019-03-28T00:45:34.925Z,13.60
2019-03-28T00:48:05.863Z,14.70
2019-03-28T00:50:36.847Z,14.50
2019-03-28T00:53:08.014Z,14.90
2019-03-28T00:55:40.626Z,17.40
2019-03-28T00:58:11.564Z,15.53
2019-03-28T01:00:42.504Z,14.80
2019-03-28T01:03:20.412Z,13.93
2019-03-28T01:05:51.358Z,14.30
2019-03-28T01:08:22.283Z,15.83
2019-03-28T01:10:53.291Z,14.30
2019-03-28T01:13:24.270Z,15.90
2019-03-28T01:15:55.409Z,16.87
2019-03-28T01:18:26.534Z,17.70
2019-03-28T01:20:57.534Z,19.23
2019-03-28T01:23:28.430Z,16.97
2019-03-28T01:25:59.368Z,15.73
2019-03-28T01:28:30.409Z,16.50
2019-03-28T01:31:02.782Z,16.73
2019-03-28T01:33:34.030Z,17.23
2019-03-28T01:36:05.011Z,16.83
2019-03-28T01:38:37.329Z,15.93
2019-03-28T01:41:08.353Z,16.57
2019-03-28T01:43:40.629Z,16.93
2019-03-28T01:46:11.682Z,15.67
2019-03-28T01:48:42.632Z,16.23
2019-03-28T01:51:13.619Z,17.77
2019-03-28T01:53:44.716Z,16.97
2019-03-28T01:56:15.654Z,17.43
2019-03-28T01:58:46.711Z,18.33
2019-03-28T02:01:17.742Z,16.93
2019-03-28T02:03:48.776Z,17.40
2019-03-28T02:06:19.706Z,19.40
2019-03-28T02:08:50.862Z,18.83
2019-03-28T02:11:21.869Z,17.97
2019-03-28T02:13:54.480Z,18.20
2019-03-28T02:16:25.627Z,20.47
2019-03-28T02:18:56.567Z,16.67
2019-03-28T02:21:28.630Z,17.07
2019-03-28T02:24:01.334Z,17.43
2019-03-28T02:26:34.440Z,17.40
2019-03-28T02:29:05.509Z,16.80
2019-03-28T02:31:36.489Z,16.00
2019-03-28T02:34:07.470Z,17.67
2019-03-28T02:36:38.412Z,17.73
2019-03-28T02:39:09.391Z,18.53
2019-03-28T02:41:40.342Z,18.23
2019-03-28T02:44:11.959Z,17.57
2019-03-28T02:46:43.127Z,17.67
2019-03-28T02:49:14.082Z,18.70
2019-03-28T02:51:45.016Z,20.00
2019-03-28T02:54:16.221Z,20.33
2019-03-28T02:56:47.102Z,18.67
2019-03-28T02:59:18.041Z,19.30
2019-03-28T03:01:50.004Z,19.30
2019-03-28T03:04:21.043Z,19.50
2019-03-28T03:06:51.969Z,19.27
2019-03-28T03:09:22.991Z,20.73
2019-03-28T03:11:53.961Z,20.60
2019-03-28T03:14:24.904Z,19.77
2019-03-28T03:16:55.841Z,19.77
2019-03-28T03:19:26.778Z,21.67
2019-03-28T03:21:57.782Z,19.27
2019-03-28T03:24:28.647Z,18.73
2019-03-28T03:26:59.904Z,20.23
2019-03-28T03:29:30.913Z,20.70
2019-03-28T03:32:01.887Z,21.60
2019-03-28T03:34:33.567Z,19.87
2019-03-28T03:37:04.628Z,20.53
2019-03-28T03:39:35.522Z,20.87
2019-03-28T03:42:07.779Z,21.37
2019-03-28T03:44:38.730Z,21.57
2019-03-28T03:47:10.912Z,20.53
2019-03-28T03:49:43.169Z,22.33
2019-03-28T03:52:14.176Z,20.80
2019-03-28T03:54:45.434Z,19.57
2019-03-28T03:57:16.599Z,20.67
2019-03-28T03:59:47.610Z,20.77
2019-03-28T04:02:18.592Z,21.93
2019-03-28T04:04:49.519Z,20.77
2019-03-28T04:07:20.457Z,21.67
2019-03-28T04:09:51.400Z,22.23
2019-03-28T04:12:22.414Z,21.00
2019-03-28T04:14:53.379Z,23.97
2019-03-28T04:17:24.522Z,23.17
2019-03-28T04:19:55.526Z,24.10
2019-03-28T04:22:27.595Z,24.17
2019-03-28T04:25:00.233Z,22.60
2019-03-28T04:27:31.449Z,23.33
2019-03-28T04:30:02.525Z,21.63
2019-03-28T04:32:33.533Z,21.63
2019-03-28T04:35:04.679Z,23.97
2019-03-28T04:37:35.670Z,23.50
2019-03-28T04:40:08.511Z,22.53
2019-03-28T04:42:40.014Z,23.70
2019-03-28T04:45:11.507Z,22.73
2019-03-28T04:47:42.444Z,21.87
2019-03-28T04:50:13.654Z,21.53
2019-03-28T04:52:45.552Z,23.73
2019-03-28T04:55:16.592Z,23.10
2019-03-28T04:57:47.530Z,23.50
2019-03-28T05:00:19.347Z,23.40
2019-03-28T05:02:50.536Z,22.30
2019-03-28T05:05:21.542Z,23.93
2019-03-28T05:07:52.412Z,24.30
2019-03-28T05:10:24.642Z,25.80
2019-03-28T05:12:55.626Z,26.03
2019-03-28T05:15:26.563Z,23.47
2019-03-28T05:17:58.729Z,23.63
2019-03-28T05:20:38.086Z,26.93
2019-03-28T05:23:09.105Z,24.03
2019-03-28T05:25:40.034Z,25.13
2019-03-28T05:28:11.058Z,28.60
2019-03-28T05:30:43.298Z,26.47
2019-03-28T05:33:14.503Z,25.30
2019-03-28T05:35:45.484Z,24.40
2019-03-28T05:38:16.588Z,25.90
2019-03-28T05:40:47.522Z,23.80
2019-03-28T05:43:18.460Z,25.47
2019-03-28T05:45:49.605Z,24.80
2019-03-28T05:48:20.626Z,24.80
2019-03-28T05:50:51.585Z,25.50
2019-03-28T05:53:22.549Z,25.17
2019-03-28T05:55:53.565Z,25.70
2019-03-28T05:58:24.576Z,24.27
2019-03-28T06:00:55.443Z,25.30
2019-03-28T06:03:27.614Z,23.17
2019-03-28T06:05:59.868Z,23.20
2019-03-28T06:08:30.823Z,23.70
2019-03-28T06:11:03.398Z,24.90
2019-03-28T06:13:34.418Z,25.73
2019-03-28T06:16:06.921Z,25.23
2019-03-28T06:18:37.842Z,29.40
2019-03-28T06:21:08.798Z,25.77
2019-03-28T06:23:39.798Z,28.00
2019-03-28T06:26:10.671Z,28.67
2019-03-28T06:28:41.609Z,28.17
2019-03-28T06:31:12.754Z,29.63
2019-03-28T06:33:43.847Z,30.00
2019-03-28T06:36:15.087Z,29.20
2019-03-28T06:38:46.127Z,27.63
2019-03-28T06:41:17.191Z,26.73
2019-03-28T06:43:48.062Z,26.77
2019-03-28T06:46:19.659Z,25.97
2019-03-28T06:48:51.467Z,26.23
2019-03-28T06:51:22.587Z,26.30
2019-03-28T06:53:53.661Z,23.70
2019-03-28T06:56:25.509Z,24.17
2019-03-28T06:58:56.768Z,24.03
2019-03-28T07:01:28.732Z,21.63
2019-03-28T07:03:59.670Z,21.50
2019-03-28T07:06:30.754Z,20.60
2019-03-28T07:09:01.653Z,22.07
2019-03-28T07:11:32.696Z,19.43
2019-03-28T07:14:03.742Z,18.10
2019-03-28T07:16:34.748Z,18.47
2019-03-28T07:19:05.713Z,18.80
2019-03-28T07:21:37.692Z,16.97
2019-03-28T07:24:08.616Z,15.90
2019-03-28T07:26:39.863Z,15.73
2019-03-28T07:29:10.878Z,15.20
2019-03-28T07:31:41.846Z,14.57
2019-03-28T07:34:13.695Z,14.90
2019-03-28T07:36:44.845Z,14.80
2019-03-28T07:39:18.864Z,13.37
2019-03-28T07:41:48.467Z,12.43
2019-03-28T07:44:19.475Z,12.80
2019-03-28T07:46:50.455Z,12.23
2019-03-28T07:49:21.384Z,12.47
2019-03-28T07:51:52.323Z,11.23
2019-03-28T07:54:23.262Z,11.13
2019-03-28T07:56:54.376Z,10.60
2019-03-28T07:59:25.346Z,10.67
2019-03-28T08:01:57.308Z,9.63
2019-03-28T08:04:28.247Z,8.73
2019-03-28T08:06:59.186Z,9.60
2019-03-28T08:09:36.551Z,9.13
2019-03-28T08:12:03.317Z,9.58
2019-03-28T08:14:34.246Z,8.60
2019-03-28T08:17:05.266Z,8.40
2019-03-28T08:19:36.236Z,8.95
2019-03-28T08:22:07.276Z,7.83
2019-03-28T08:24:38.217Z,7.95
2019-03-28T08:27:09.227Z,7.80
2019-03-28T08:29:40.301Z,7.83
2019-03-28T08:32:15.665Z,7.83
2019-03-28T08:34:46.688Z,7.30
2019-03-28T08:37:18.247Z,8.50
2019-03-28T08:39:49.280Z,8.08
2019-03-28T08:42:21.244Z,6.58
2019-03-28T08:44:52.179Z,7.33
2019-03-28T08:47:23.118Z,6.85
2019-03-28T08:49:54.057Z,6.35
2019-03-28T08:52:25.079Z,7.30
2019-03-28T08:55:03.426Z,7.17
2019-03-28T08:57:34.141Z,7.00
2019-03-28T09:00:07.854Z,6.72
2019-03-28T09:02:38.888Z,6.83
2019-03-28T09:05:10.035Z,7.20
2019-03-28T09:07:41.042Z,6.35
2019-03-28T09:10:13.297Z,6.08
2019-03-28T09:12:44.784Z,5.97
2019-03-28T09:15:16.044Z,6.35
2019-03-28T09:17:46.988Z,6.05
2019-03-28T09:20:18.636Z,6.53
2019-03-28T09:22:49.647Z,6.60
2019-03-28T09:25:20.617Z,5.40
2019-03-28T09:27:51.772Z,6.00
2019-03-28T09:30:47.322Z,6.58
2019-03-28T09:33:11.622Z,5.65
2019-03-28T09:35:42.609Z,6.12
2019-03-28T09:38:13.712Z,6.17
2019-03-28T09:40:44.992Z,5.55
2019-03-28T09:43:16.145Z,6.45
2019-03-28T09:45:47.086Z,6.22
2019-03-28T09:48:19.197Z,6.03
2019-03-28T09:50:50.083Z,6.65
2019-03-28T09:53:22.057Z,6.28
2019-03-28T09:55:52.990Z,7.62
2019-03-28T09:58:24.229Z,5.97
2019-03-28T10:01:02.640Z,6.40
2019-03-28T10:03:28.872Z,6.75
2019-03-28T10:05:59.823Z,6.65
2019-03-28T10:08:30.735Z,7.20
2019-03-28T10:11:01.710Z,6.87
2019-03-28T10:13:34.264Z,6.15
2019-03-28T10:16:05.223Z,6.92
2019-03-28T10:18:36.129Z,6.75
2019-03-28T10:21:07.185Z,6.65
2019-03-28T10:23:39.956Z,6.15
2019-03-28T10:26:11.023Z,6.62
2019-03-28T10:28:43.178Z,6.55
2019-03-28T10:31:16.675Z,7.10
2019-03-28T10:33:47.515Z,6.33
2019-03-28T10:36:18.555Z,6.45
2019-03-28T10:38:49.546Z,6.10
2019-03-28T10:41:20.602Z,6.75
2019-03-28T10:43:51.579Z,6.92
2019-03-28T10:46:22.618Z,6.45
2019-03-28T10:48:54.541Z,6.25
2019-03-28T10:51:25.605Z,6.62
2019-03-28T10:53:56.540Z,6.03
2019-03-28T10:56:27.480Z,6.83
2019-03-28T10:58:58.490Z,6.28
2019-03-28T11:01:41.926Z,7.45
2019-03-28T11:04:02.042Z,6.28
2019-03-28T11:06:32.977Z,6.60
2019-03-28T11:09:05.066Z,6.65
2019-03-28T11:11:36.256Z,7.03
2019-03-28T11:14:08.368Z,7.40
2019-03-28T11:16:39.329Z,6.53
2019-03-28T11:19:10.236Z,7.08
2019-03-28T11:21:41.389Z,7.53
2019-03-28T11:24:12.388Z,6.97
2019-03-28T11:26:43.361Z,7.58
2019-03-28T11:29:14.297Z,7.83
2019-03-28T11:31:46.914Z,7.60
2019-03-28T11:34:17.881Z,7.22
2019-03-28T11:36:48.753Z,6.33
2019-03-28T11:39:20.874Z,7.40
2019-03-28T11:41:51.985Z,6.58
2019-03-28T11:44:24.438Z,7.12
2019-03-28T11:46:55.452Z,7.25
2019-03-28T11:49:27.089Z,7.08
2019-03-28T11:51:58.241Z,7.60
2019-03-28T11:54:29.217Z,7.20
2019-03-28T11:57:00.256Z,6.78
2019-03-28T11:59:31.198Z,6.45
2019-03-28T12:02:18.578Z,6.17
2019-03-28T12:04:34.714Z,6.40
2019-03-28T12:07:05.562Z,6.53
2019-03-28T12:09:36.604Z,5.87
2019-03-28T12:12:07.705Z,6.10
2019-03-28T12:14:38.561Z,5.55
2019-03-28T12:17:09.616Z,5.87
2019-03-28T12:19:40.809Z,6.22
2019-03-28T12:22:12.119Z,6.40
2019-03-28T12:24:43.179Z,6.03
2019-03-28T12:27:14.131Z,6.30
2019-03-28T12:29:45.094Z,6.80
2019-03-28T12:32:16.069Z,5.47
2019-03-28T12:34:47.007Z,6.30
2019-03-28T12:37:17.951Z,6.60
2019-03-28T12:39:48.905Z,4.75
2019-03-28T12:42:19.935Z,6.67
2019-03-28T12:44:56.881Z,6.62
2019-03-28T12:47:23.563Z,5.83
2019-03-28T12:49:54.433Z,6.30
2019-03-28T12:52:25.484Z,6.33
2019-03-28T12:54:56.269Z,7.17
2019-03-28T12:57:27.209Z,6.78
2019-03-28T12:59:58.306Z,7.22
2019-03-28T13:02:31.908Z,7.12
2019-03-28T13:05:02.018Z,7.12
2019-03-28T13:07:32.910Z,7.47
2019-03-28T13:10:04.053Z,7.67
2019-03-28T13:12:34.888Z,7.70
2019-03-28T13:15:06.332Z,7.97
2019-03-28T13:17:37.265Z,7.80
2019-03-28T13:20:10.734Z,6.65
2019-03-28T13:22:41.729Z,7.62
2019-03-28T13:25:12.752Z,8.78
2019-03-28T13:27:43.761Z,8.68
2019-03-28T13:30:15.346Z,7.83
2019-03-28T13:32:46.354Z,6.80
2019-03-28T13:35:17.333Z,7.50
2019-03-28T13:37:48.485Z,8.05
2019-03-28T13:40:19.437Z,7.72
2019-03-28T13:42:53.027Z,10.00
2019-03-28T13:45:23.548Z,7.83
2019-03-28T13:47:54.524Z,7.47
2019-03-28T13:50:25.617Z,7.60
2019-03-28T13:52:56.617Z,7.30
2019-03-28T13:55:27.496Z,7.22
2019-03-28T13:57:58.433Z,7.80
2019-03-28T14:00:33.686Z,7.70
2019-03-28T14:03:05.738Z,7.47
2019-03-28T14:05:36.748Z,8.00
2019-03-28T14:08:07.605Z,7.95
2019-03-28T14:10:38.657Z,7.95
2019-03-28T14:13:09.599Z,9.23
2019-03-28T14:15:40.548Z,7.67
2019-03-28T14:18:11.553Z,8.58
2019-03-28T14:20:42.414Z,8.25
2019-03-28T14:23:13.353Z,9.05
2019-03-28T14:25:44.347Z,8.15
2019-03-28T14:28:15.315Z,9.20
2019-03-28T14:30:46.279Z,8.55
2019-03-28T14:33:17.213Z,7.00
2019-03-28T14:35:48.153Z,7.80
2019-03-28T14:38:19.167Z,7.67
2019-03-28T14:40:50.083Z,7.17
2019-03-28T14:43:21.389Z,8.95
2019-03-28T14:45:52.402Z,8.18
2019-03-28T14:48:23.357Z,9.40
2019-03-28T14:50:54.398Z,7.92
2019-03-28T14:53:25.349Z,9.28
2019-03-28T14:55:57.773Z,9.18
2019-03-28T14:58:30.072Z,7.30
2019-03-28T15:01:01.136Z,8.43
2019-03-28T15:03:32.069Z,7.65
2019-03-28T15:06:03.222Z,9.55
2019-03-28T15:08:34.217Z,8.48
2019-03-28T15:11:05.095Z,9.88
2019-03-28T15:13:36.025Z,9.03
2019-03-28T15:16:07.180Z,8.13
2019-03-28T15:18:38.182Z,10.98
2019-03-28T15:21:09.059Z,10.18
2019-03-28T15:23:39.996Z,8.38
2019-03-28T15:26:11.140Z,8.15
2019-03-28T15:28:42.223Z,9.00
2019-03-28T15:31:13.109Z,9.05
2019-03-28T15:33:44.049Z,9.30
2019-03-28T15:36:14.985Z,7.65
2019-03-28T15:38:45.926Z,7.92
2019-03-28T15:41:16.944Z,7.67
2019-03-28T15:43:47.932Z,7.67
2019-03-28T15:46:18.845Z,7.25
2019-03-28T15:48:50.002Z,7.30
2019-03-28T15:51:21.002Z,8.05
2019-03-28T15:53:51.878Z,9.43
2019-03-28T15:56:22.805Z,8.40
2019-03-28T15:58:53.965Z,7.72
2019-03-28T16:01:25.197Z,9.70
2019-03-28T16:03:56.132Z,8.83
2019-03-28T16:06:27.070Z,9.30
2019-03-28T16:08:58.017Z,9.18
2019-03-28T16:11:29.026Z,8.70
2019-03-28T16:13:59.901Z,9.10
2019-03-28T16:16:30.829Z,10.55
2019-03-28T16:19:01.974Z,10.43
2019-03-28T16:21:32.981Z,9.98
2019-03-28T16:24:03.855Z,8.83
2019-03-28T16:26:34.795Z,9.15
2019-03-28T16:29:05.833Z,8.53
2019-03-28T16:31:36.819Z,9.85
2019-03-28T16:34:07.766Z,8.15
2019-03-28T16:36:38.760Z,8.83
2019-03-28T16:39:09.690Z,8.60
2019-03-28T16:41:40.658Z,8.35
2019-03-28T16:44:11.888Z,8.90
2019-03-28T16:46:42.813Z,8.25
2019-03-28T16:49:13.756Z,9.35
2019-03-28T16:51:44.769Z,8.18
2019-03-28T16:54:15.804Z,9.40
2019-03-28T16:56:46.674Z,8.18
2019-03-28T16:59:17.817Z,8.73
2019-03-28T17:01:48.913Z,8.00
2019-03-28T17:04:21.246Z,8.85
2019-03-28T17:06:53.101Z,9.30
2019-03-28T17:09:24.953Z,9.20
2019-03-28T17:11:55.791Z,8.40
2019-03-28T17:14:26.800Z,8.50
2019-03-28T17:16:57.665Z,8.78
2019-03-28T17:19:28.605Z,7.93
2019-03-28T17:21:59.545Z,7.70
2019-03-28T17:24:30.482Z,8.33
2019-03-28T17:27:01.488Z,7.23
2019-03-28T17:29:32.358Z,8.50
2019-03-28T17:32:03.302Z,8.03
2019-03-28T17:34:36.239Z,8.00
2019-03-28T17:37:06.881Z,8.60
2019-03-28T17:39:37.753Z,8.10
2019-03-28T17:42:08.731Z,8.60
2019-03-28T17:44:39.681Z,8.27
2019-03-28T17:47:10.743Z,8.60
2019-03-28T17:49:41.829Z,9.13
2019-03-28T17:52:12.753Z,9.17
2019-03-28T17:54:43.695Z,9.47
2019-03-28T17:57:14.704Z,9.50
2019-03-28T17:59:45.673Z,9.60
2019-03-28T18:02:16.921Z,9.23
2019-03-28T18:04:48.437Z,9.57
2019-03-28T18:07:20.517Z,10.50
2019-03-28T18:09:51.377Z,11.87
2019-03-28T18:12:22.360Z,10.43
2019-03-28T18:14:53.370Z,10.20
2019-03-28T18:17:24.298Z,10.40
2019-03-28T18:19:55.305Z,10.37
2019-03-28T18:22:26.278Z,10.13
2019-03-28T18:24:57.328Z,10.73
2019-03-28T18:27:28.357Z,11.33
2019-03-28T18:29:59.384Z,10.77
2019-03-28T18:32:30.965Z,10.90
2019-03-28T18:35:05.820Z,12.10
2019-03-28T18:37:35.813Z,12.10
2019-03-28T18:40:07.767Z,12.43
2019-03-28T18:42:38.739Z,13.07
2019-03-28T18:45:12.701Z,14.43
2019-03-28T18:47:44.895Z,14.50
2019-03-28T18:50:16.024Z,13.70
2019-03-28T18:52:46.966Z,13.40
2019-03-28T18:55:20.498Z,13.63
2019-03-28T18:57:50.444Z,12.83
2019-03-28T19:00:22.046Z,13.97
2019-03-28T19:02:53.234Z,13.93
2019-03-28T19:05:24.118Z,13.77
2019-03-28T19:07:55.106Z,13.40
2019-03-28T19:10:26.109Z,14.80
2019-03-28T19:12:56.893Z,12.93
2019-03-28T19:15:27.782Z,14.37
2019-03-28T19:17:59.718Z,13.17
2019-03-28T19:20:33.108Z,13.83
2019-03-28T19:23:07.018Z,13.27
2019-03-28T19:25:37.179Z,14.00
2019-03-28T19:28:08.325Z,13.67
2019-03-28T19:30:39.488Z,14.50
2019-03-28T19:33:10.602Z,15.47
2019-03-28T19:35:42.293Z,14.93
2019-03-28T19:38:16.702Z,14.53
2019-03-28T19:40:48.049Z,14.83
2019-03-28T19:43:21.178Z,15.20
2019-03-28T19:45:52.487Z,15.77
2019-03-28T19:48:23.627Z,14.87
2019-03-28T19:50:56.210Z,13.40
2019-03-28T19:53:28.376Z,13.07
2019-03-28T19:55:59.323Z,12.63
2019-03-28T19:58:30.974Z,13.63
2019-03-28T20:01:02.411Z,13.63
2019-03-28T20:03:33.595Z,13.20
2019-03-28T20:06:04.701Z,13.97
2019-03-28T20:08:36.042Z,13.20
2019-03-28T20:11:07.129Z,13.20
2019-03-28T20:13:38.537Z,13.10
2019-03-28T20:16:09.718Z,12.80
2019-03-28T20:18:44.278Z,11.00
2019-03-28T20:21:15.424Z,12.97
2019-03-28T20:23:46.491Z,12.73
2019-03-28T20:26:19.765Z,11.83
2019-03-28T20:28:50.293Z,13.47
2019-03-28T20:31:21.256Z,13.67
2019-03-28T20:33:52.499Z,14.67
2019-03-28T20:36:36.923Z,13.33
2019-03-28T20:39:03.803Z,16.33
2019-03-28T20:41:29.740Z,16.00
2019-03-28T20:44:00.583Z,16.13
2019-03-28T20:46:31.606Z,17.30
2019-03-28T20:49:02.525Z,17.27
2019-03-28T20:51:33.454Z,16.43
2019-03-28T20:54:07.649Z,17.70
2019-03-28T20:56:37.482Z,17.13
2019-03-28T20:59:08.749Z,15.93
2019-03-28T21:01:42.469Z,17.87
2019-03-28T21:04:12.880Z,17.60
2019-03-28T21:06:45.079Z,17.07
2019-03-28T21:09:16.214Z,16.33
2019-03-28T21:11:49.009Z,18.10
2019-03-28T21:14:20.235Z,18.47
2019-03-28T21:16:51.410Z,16.43
2019-03-28T21:19:22.381Z,17.83
2019-03-28T21:21:55.020Z,18.83
2019-03-28T21:24:26.400Z,17.77
2019-03-28T21:26:57.422Z,16.80
2019-03-28T21:29:28.490Z,19.20
2019-03-28T21:32:00.665Z,19.23
2019-03-28T21:34:31.817Z,18.07
2019-03-28T21:37:06.165Z,17.37
2019-03-28T21:39:35.541Z,17.10
2019-03-28T21:42:07.328Z,16.80
2019-03-28T21:44:38.709Z,16.60
2019-03-28T21:47:09.805Z,16.63
2019-03-28T21:49:43.321Z,16.17
2019-03-28T21:52:14.580Z,17.23
2019-03-28T21:54:45.589Z,15.07
2019-03-28T21:57:17.560Z,16.80
2019-03-28T21:59:48.938Z,16.17
2019-03-28T22:02:20.134Z,16.07
2019-03-28T22:04:51.280Z,17.40
2019-03-28T22:07:22.326Z,15.87
2019-03-28T22:09:53.693Z,15.67
2019-03-28T22:12:24.982Z,16.10
2019-03-28T22:14:56.273Z,15.50
2019-03-28T22:17:27.307Z,14.37
2019-03-28T22:19:58.549Z,14.90
2019-03-28T22:22:29.477Z,15.47
2019-03-28T22:25:00.557Z,15.87
2019-03-28T22:27:31.777Z,15.60
2019-03-28T22:30:03.936Z,16.27
2019-03-28T22:32:36.177Z,16.30
2019-03-28T22:35:08.652Z,15.90
2019-03-28T22:37:40.773Z,15.17
2019-03-28T22:40:12.339Z,15.87
2019-03-28T22:42:43.661Z,15.83
2019-03-28T22:45:14.978Z,15.20
2019-03-28T22:47:46.139Z,15.17
2019-03-28T22:50:17.604Z,16.53
2019-03-28T22:52:51.819Z,15.67
2019-03-28T22:55:22.927Z,17.17
2019-03-28T22:57:54.247Z,16.50
2019-03-28T23:00:39.814Z,16.27
2019-03-28T23:03:10.850Z,15.63
2019-03-28T23:05:41.901Z,17.13
2019-03-28T23:08:13.015Z,16.70
2019-03-28T23:10:44.119Z,16.20
2019-03-28T23:13:15.087Z,16.97
2019-03-28T23:15:46.359Z,17.23
2019-03-28T23:18:17.268Z,17.23
2019-03-28T23:20:48.290Z,17.00
2019-03-28T23:23:19.254Z,16.67
2019-03-28T23:25:50.192Z,16.03
2019-03-28T23:28:21.129Z,15.70
2019-03-28T23:30:52.143Z,15.33
2019-03-28T23:33:23.109Z,16.17
2019-03-28T23:35:54.369Z,16.73
2019-03-28T23:38:25.366Z,17.03
2019-03-28T23:40:56.451Z,16.57
2019-03-28T23:43:27.435Z,18.93
2019-03-28T23:45:58.502Z,17.50
2019-03-28T23:48:29.438Z,18.70
2019-03-28T23:51:00.298Z,19.07
2019-03-28T23:53:31.245Z,17.67
2019-03-28T23:56:02.174Z,18.23
2019-03-28T23:58:33.190Z,18.63
